LKTB/BRQ METAR and TAF weather

Enter ICAO airport designator
Station Type Date Time Source
LKTB METAR 2022/01/28 00:00 UTC NOAA

LKTB 280000Z 26010KT 9999 -SHRA BKN024 OVC043 03/M00 Q1017 NOSIG


Station Type Date Time Source
LKTB Decoded METAR 2022/01/28 00:00 UTC NOAA

Brno / Turany, Czech Republic (LKTB) 49-09N 016-42E 246M
Jan 27, 2022 - 07:00 PM EST / 2022.01.28 0000 UTC
Wind: from the W (260 degrees) at 12 MPH (10 KT):0
Visibility: greater than 7 mile(s):0
Sky conditions: overcast
Weather: light rain showers
Temperature: 37 F (3 C)
Dew Point: 32 F (0 C)
Relative Humidity: 80%
Pressure (altimeter): 30.03 in. Hg (1017 hPa)
ob: LKTB 280000Z 26010KT 9999 -SHRA BKN024 OVC043 03/M00 Q1017 NOSIG
cycle: 0

Station Type Date Time Source
LKTB TAF 2022/01/27 18:04 UTC NOAA

TAF LKTB 271700Z 2718/2900 26008KT 9999 OVC030
TEMPO 2718/2721 BKN014 PROB30
TEMPO 2718/2720 -RASN BKN008
BECMG 2722/2800 27014KT
TEMPO 2802/2818 30018G32KT
BECMG 2814/2816 SCT030

Example: see airport list